Time;durP1;ratioP1;P1;durP2;ratioP2;P2;SDS_P1;SDS_P2;PMS_P1;PMS_P2;Temp;Humidity;BMP_temperature;BMP_pressure;BME280_temperature;BME280_humidity;BME280_pressure;Samples;Min_cycle;Max_cycle;Signal;HPM_P1;HPM_P2
2021/08/24 00:00:22;;;;;;;4.53;3.00;;;15.00;99.90;;;;;;4400021;32;20250;-65
2021/08/24 00:02:49;;;;;;;5.73;3.30;;;15.00;99.90;;;;;;4399180;32;20232;-64
2021/08/24 00:05:20;;;;;;;4.93;3.10;;;15.00;99.90;;;;;;4394429;32;20199;-65
2021/08/24 00:07:47;;;;;;;6.00;3.23;;;15.00;99.90;;;;;;4405707;32;20516;-65
2021/08/24 00:10:16;;;;;;;6.73;2.97;;;14.90;99.90;;;;;;4406229;32;20161;-64
2021/08/24 00:12:45;;;;;;;7.63;3.20;;;15.00;99.90;;;;;;4405900;32;20178;-64
2021/08/24 00:15:13;;;;;;;3.33;2.80;;;14.90;99.90;;;;;;4404862;32;20147;-64
2021/08/24 00:17:40;;;;;;;6.17;3.30;;;14.90;99.90;;;;;;4406836;32;20521;-64
2021/08/24 00:20:08;;;;;;;5.13;3.33;;;14.90;99.90;;;;;;4406779;32;20151;-65
2021/08/24 00:22:36;;;;;;;7.23;3.07;;;14.90;99.90;;;;;;4405859;32;20155;-64
2021/08/24 00:25:10;;;;;;;4.30;3.20;;;14.90;99.90;;;;;;4405458;32;20161;-64
2021/08/24 00:27:37;;;;;;;5.10;3.17;;;14.80;99.90;;;;;;4405296;32;20223;-64
2021/08/24 00:30:06;;;;;;;5.10;2.57;;;14.80;99.90;;;;;;4405363;32;20182;-64
2021/08/24 00:32:32;;;;;;;4.33;2.73;;;14.80;99.90;;;;;;4401375;32;20171;-65
2021/08/24 00:35:00;;;;;;;5.77;2.43;;;14.80;99.90;;;;;;4406011;32;20573;-65
2021/08/24 00:37:26;;;;;;;9.00;3.10;;;14.70;99.90;;;;;;4405418;32;20144;-64
2021/08/24 00:39:53;;;;;;;5.33;3.77;;;14.70;99.90;;;;;;4407155;32;20222;-65
2021/08/24 00:42:21;;;;;;;4.93;3.40;;;14.70;99.90;;;;;;4405464;32;20179;-65
2021/08/24 00:44:49;;;;;;;6.17;4.60;;;14.70;99.90;;;;;;4405547;32;20206;-64
2021/08/24 00:47:20;;;;;;;5.13;3.23;;;14.70;99.90;;;;;;4405462;32;20215;-64
2021/08/24 00:49:49;;;;;;;6.50;3.13;;;14.60;99.90;;;;;;4405392;32;20234;-65
2021/08/24 00:52:21;;;;;;;4.60;3.00;;;14.70;99.90;;;;;;4405433;32;20151;-64
2021/08/24 00:54:50;;;;;;;6.87;3.63;;;14.70;99.90;;;;;;4405480;32;20157;-64
2021/08/24 00:57:19;;;;;;;8.33;3.37;;;14.60;99.90;;;;;;4405031;32;20147;-64
2021/08/24 00:59:48;;;;;;;5.33;3.10;;;14.60;99.90;;;;;;4405190;32;20170;-65
2021/08/24 01:02:18;;;;;;;6.37;3.77;;;14.60;99.90;;;;;;4405859;32;20144;-64
2021/08/24 01:04:47;;;;;;;6.33;3.80;;;14.60;99.90;;;;;;4405417;32;20175;-65
2021/08/24 01:07:20;;;;;;;4.40;3.30;;;14.70;99.90;;;;;;4405533;32;20556;-65
2021/08/24 01:09:55;;;;;;;5.60;3.37;;;14.60;99.90;;;;;;4405581;32;20158;-65
2021/08/24 01:12:33;;;;;;;9.47;3.93;;;14.60;99.90;;;;;;4394627;32;20155;-64
2021/08/24 01:15:08;;;;;;;6.83;3.73;;;14.50;99.90;;;;;;4405514;32;20205;-65
2021/08/24 01:17:41;;;;;;;6.03;3.57;;;14.50;99.90;;;;;;4404991;32;20175;-64
2021/08/24 01:20:28;;;;;;;6.37;3.77;;;14.50;99.90;;;;;;4406278;32;20139;-64
2021/08/24 01:23:32;;;;;;;5.50;4.00;;;14.50;99.90;;;;;;4404925;32;20163;-64
2021/08/24 01:26:04;;;;;;;12.20;4.40;;;14.50;99.90;;;;;;4393178;32;20193;-64
2021/08/24 01:28:40;;;;;;;7.73;4.07;;;14.50;99.90;;;;;;4407028;32;20169;-64
2021/08/24 01:31:52;;;;;;;7.70;3.90;;;14.40;99.90;;;;;;4408161;32;20206;-64
2021/08/24 01:34:34;;;;;;;6.77;4.23;;;14.40;99.90;;;;;;4407873;32;20545;-65
2021/08/24 01:37:05;;;;;;;8.77;4.27;;;14.30;99.90;;;;;;4407735;32;20225;-64
2021/08/24 01:39:40;;;;;;;14.53;5.40;;;14.30;99.90;;;;;;4407496;32;20213;-64
2021/08/24 01:42:15;;;;;;;8.77;4.87;;;14.30;99.90;;;;;;4407439;32;20151;-64
2021/08/24 01:44:52;;;;;;;7.77;4.63;;;14.30;99.90;;;;;;4408461;32;20207;-64
2021/08/24 01:47:23;;;;;;;8.40;4.80;;;14.30;99.90;;;;;;4406901;32;20209;-64
2021/08/24 01:50:00;;;;;;;6.93;5.00;;;14.20;99.90;;;;;;4407793;32;20178;-64
2021/08/24 01:52:34;;;;;;;8.40;4.47;;;14.20;99.90;;;;;;4407591;32;20163;-64
2021/08/24 01:55:06;;;;;;;6.77;4.37;;;14.20;99.90;;;;;;4407516;32;20210;-64
2021/08/24 01:57:38;;;;;;;9.37;5.30;;;14.20;99.90;;;;;;4405627;32;20170;-64
2021/08/24 02:00:08;;;;;;;7.03;4.50;;;14.20;99.90;;;;;;4407803;32;20152;-64
2021/08/24 02:02:40;;;;;;;6.63;4.73;;;14.10;99.90;;;;;;4407018;32;20485;-64
2021/08/24 02:05:13;;;;;;;6.30;4.43;;;14.10;99.90;;;;;;4392811;32;20168;-64
2021/08/24 02:07:41;;;;;;;6.87;4.70;;;14.10;99.90;;;;;;4403216;32;20171;-64
2021/08/24 02:10:13;;;;;;;8.17;4.50;;;14.10;99.90;;;;;;4406978;32;20145;-64
2021/08/24 02:12:43;;;;;;;7.60;4.10;;;14.20;99.90;;;;;;4407213;32;20198;-64
2021/08/24 02:15:11;;;;;;;7.23;4.80;;;14.20;99.90;;;;;;4407270;32;20165;-64
2021/08/24 02:17:41;;;;;;;8.13;4.73;;;14.20;99.90;;;;;;4408798;32;20215;-64
2021/08/24 02:20:14;;;;;;;8.17;5.10;;;14.10;99.90;;;;;;4407036;32;20163;-64
2021/08/24 02:22:45;;;;;;;9.60;5.13;;;14.10;99.90;;;;;;4406776;32;20272;-64
2021/08/24 02:25:16;;;;;;;9.47;4.90;;;14.10;99.90;;;;;;4407158;32;20168;-64
2021/08/24 02:27:51;;;;;;;6.63;5.23;;;14.10;99.90;;;;;;4407368;32;20178;-65
2021/08/24 02:30:20;;;;;;;9.93;5.13;;;14.10;99.90;;;;;;4407981;32;20545;-65
2021/08/24 02:32:50;;;;;;;8.07;5.23;;;14.10;99.90;;;;;;4408083;32;20514;-64
2021/08/24 02:35:26;;;;;;;10.10;5.47;;;14.00;99.90;;;;;;4406626;32;20230;-65
2021/08/24 02:37:58;;;;;;;9.17;4.67;;;14.00;99.90;;;;;;4402088;32;20150;-65
2021/08/24 02:40:34;;;;;;;10.13;4.57;;;14.00;99.90;;;;;;4407444;32;20265;-65
2021/08/24 02:43:13;;;;;;;7.83;4.93;;;13.90;99.90;;;;;;4408940;32;20260;-66
2021/08/24 02:45:45;;;;;;;8.23;5.10;;;13.90;99.90;;;;;;4406221;32;20235;-65
2021/08/24 02:48:14;;;;;;;8.93;5.23;;;13.90;99.90;;;;;;4406814;32;20181;-65
2021/08/24 02:50:42;;;;;;;7.37;5.17;;;13.90;99.90;;;;;;4401828;32;20148;-64
2021/08/24 02:53:12;;;;;;;7.27;5.77;;;13.80;99.90;;;;;;4398991;32;20540;-65
2021/08/24 02:55:39;;;;;;;9.90;5.67;;;13.80;99.90;;;;;;4406890;32;20238;-65
2021/08/24 02:58:06;;;;;;;5.90;4.67;;;13.80;99.90;;;;;;4407419;32;20491;-64
2021/08/24 03:00:36;;;;;;;8.07;4.60;;;13.80;99.90;;;;;;4406764;32;20163;-64
2021/08/24 03:03:03;;;;;;;8.03;5.03;;;13.80;99.90;;;;;;4397408;32;20222;-65
2021/08/24 03:05:29;;;;;;;10.80;5.13;;;13.70;99.90;;;;;;4396069;32;20170;-65
2021/08/24 03:08:00;;;;;;;9.40;5.67;;;13.70;99.90;;;;;;4399197;32;20167;-64
2021/08/24 03:10:34;;;;;;;6.90;4.63;;;13.70;99.90;;;;;;4406145;32;20226;-64
2021/08/24 03:13:19;;;;;;;9.90;5.43;;;13.60;99.90;;;;;;4406128;32;20166;-65
2021/08/24 03:15:52;;;;;;;6.47;4.47;;;13.60;99.90;;;;;;4406642;32;20167;-64
2021/08/24 03:18:24;;;;;;;8.00;5.57;;;13.60;99.90;;;;;;4405953;32;20166;-64
2021/08/24 03:20:55;;;;;;;8.73;4.73;;;13.60;99.90;;;;;;4406410;32;20163;-65
2021/08/24 03:23:24;;;;;;;8.70;6.00;;;13.60;99.90;;;;;;4406754;32;20260;-65
2021/08/24 03:25:53;;;;;;;8.27;6.00;;;13.60;99.90;;;;;;4418403;32;20159;-64
2021/08/24 03:28:22;;;;;;;10.77;4.87;;;13.50;99.90;;;;;;4405708;32;20152;-65
2021/08/24 03:30:50;;;;;;;7.63;5.17;;;13.50;99.90;;;;;;4406102;32;20144;-64
2021/08/24 03:33:18;;;;;;;8.57;4.80;;;13.50;99.90;;;;;;4407788;32;20139;-65
2021/08/24 03:35:45;;;;;;;11.50;5.80;;;13.50;99.90;;;;;;4406250;32;20159;-65
2021/08/24 03:38:13;;;;;;;8.63;6.10;;;13.50;99.90;;;;;;4406973;32;20250;-64
2021/08/24 03:40:39;;;;;;;8.13;5.90;;;13.50;99.90;;;;;;4406382;32;20147;-65
2021/08/24 03:43:08;;;;;;;10.10;6.00;;;13.40;99.90;;;;;;4406686;32;20497;-65
2021/08/24 03:45:35;;;;;;;10.70;5.77;;;13.50;99.90;;;;;;4407923;32;20165;-65
2021/08/24 03:48:03;;;;;;;8.03;6.13;;;13.40;99.90;;;;;;4405600;32;20183;-65
2021/08/24 03:50:29;;;;;;;9.37;6.73;;;13.50;99.90;;;;;;4405610;32;20170;-64
2021/08/24 03:52:59;;;;;;;11.50;6.10;;;13.40;99.90;;;;;;4406905;32;20160;-64
2021/08/24 03:55:26;;;;;;;12.73;6.80;;;13.50;99.90;;;;;;4405943;32;20183;-64
2021/08/24 03:57:53;;;;;;;8.60;6.07;;;13.40;99.90;;;;;;4404943;32;20159;-64
2021/08/24 04:00:21;;;;;;;8.73;6.27;;;13.40;99.90;;;;;;4405342;32;20175;-65
2021/08/24 04:02:48;;;;;;;9.60;6.03;;;13.40;99.90;;;;;;4405481;32;20643;-65
2021/08/24 04:05:15;;;;;;;12.33;6.73;;;13.40;99.90;;;;;;4405463;32;20156;-65
2021/08/24 04:07:42;;;;;;;10.00;7.77;;;13.40;99.90;;;;;;4406840;32;20259;-64
2021/08/24 04:10:10;;;;;;;10.47;6.63;;;13.40;99.90;;;;;;4405469;32;20140;-64
2021/08/24 04:12:37;;;;;;;16.53;7.10;;;13.40;99.90;;;;;;4405138;32;20171;-65
2021/08/24 04:15:06;;;;;;;11.37;7.00;;;13.40;99.90;;;;;;4404676;32;20147;-64
2021/08/24 04:17:34;;;;;;;12.07;7.30;;;13.40;99.90;;;;;;4405624;32;20204;-63
2021/08/24 04:20:03;;;;;;;9.87;6.97;;;13.40;99.90;;;;;;4405137;32;20240;-64
2021/08/24 04:22:30;;;;;;;12.40;7.80;;;13.40;99.90;;;;;;4405677;32;20174;-63
2021/08/24 04:24:57;;;;;;;14.97;7.87;;;13.40;99.90;;;;;;4405606;32;20150;-63
2021/08/24 04:27:24;;;;;;;15.20;8.10;;;13.40;99.90;;;;;;4407037;32;20223;-64
2021/08/24 04:29:51;;;;;;;14.03;7.97;;;13.40;99.90;;;;;;4405165;32;20475;-64
2021/08/24 04:32:23;;;;;;;13.73;8.03;;;13.40;99.90;;;;;;4404254;32;20476;-63
2021/08/24 04:34:52;;;;;;;11.70;7.67;;;13.40;99.90;;;;;;4405124;32;20145;-64
2021/08/24 04:37:18;;;;;;;13.90;7.40;;;13.40;99.90;;;;;;4405036;32;20152;-64
2021/08/24 04:39:45;;;;;;;12.73;8.63;;;13.50;99.90;;;;;;4405715;32;20139;-64
2021/08/24 04:42:13;;;;;;;12.17;8.13;;;13.50;99.90;;;;;;4404703;32;20238;-64
2021/08/24 04:44:39;;;;;;;12.67;8.93;;;13.40;99.90;;;;;;4405777;32;20218;-64
2021/08/24 04:47:06;;;;;;;16.13;9.53;;;13.50;99.90;;;;;;4404453;32;20162;-64
2021/08/24 04:49:33;;;;;;;16.07;8.80;;;13.50;99.90;;;;;;4404600;32;20522;-65
2021/08/24 04:52:02;;;;;;;13.57;8.90;;;13.50;99.90;;;;;;4405600;32;20166;-64
2021/08/24 04:54:33;;;;;;;14.63;9.63;;;13.50;99.90;;;;;;4407317;32;20170;-64
2021/08/24 04:57:00;;;;;;;14.83;8.20;;;13.60;99.90;;;;;;4408474;32;20822;-64
2021/08/24 04:59:28;;;;;;;10.70;7.93;;;13.60;99.90;;;;;;4408193;32;20164;-62
2021/08/24 05:01:55;;;;;;;14.20;8.07;;;13.60;99.90;;;;;;4407094;32;20170;-64
2021/08/24 05:04:22;;;;;;;12.90;8.00;;;13.60;99.90;;;;;;4408531;32;20173;-63
2021/08/24 05:06:50;;;;;;;13.60;8.63;;;13.60;99.90;;;;;;4408247;32;20152;-65
2021/08/24 05:09:18;;;;;;;12.30;8.27;;;13.70;99.90;;;;;;4410258;32;20214;-65
2021/08/24 05:11:45;;;;;;;13.30;7.67;;;13.70;99.90;;;;;;4407764;32;20165;-63
2021/08/24 05:14:12;;;;;;;17.37;9.50;;;13.70;99.90;;;;;;4408186;32;20164;-62
2021/08/24 05:16:40;;;;;;;12.40;8.70;;;13.70;99.90;;;;;;4407919;32;20186;-62
2021/08/24 05:19:08;;;;;;;10.70;7.73;;;13.80;99.90;;;;;;4409256;32;20152;-65
2021/08/24 05:21:36;;;;;;;17.07;8.00;;;13.80;99.90;;;;;;4409296;32;20143;-65
2021/08/24 05:24:03;;;;;;;16.13;8.90;;;13.90;99.90;;;;;;4409245;32;20217;-64
2021/08/24 05:26:31;;;;;;;12.20;8.77;;;14.00;99.90;;;;;;4409635;32;20164;-64
2021/08/24 05:28:58;;;;;;;19.07;9.27;;;14.00;99.90;;;;;;4408674;32;20154;-62
2021/08/24 05:31:25;;;;;;;14.07;8.23;;;14.10;99.90;;;;;;4409092;32;20143;-64
2021/08/24 05:33:52;;;;;;;17.57;8.40;;;14.10;99.90;;;;;;4408935;32;20195;-64
2021/08/24 05:36:19;;;;;;;16.30;8.53;;;14.20;99.90;;;;;;4407778;32;20143;-64
2021/08/24 05:38:49;;;;;;;13.93;8.90;;;14.20;99.90;;;;;;4405790;32;20564;-64
2021/08/24 05:41:15;;;;;;;11.53;7.93;;;14.20;99.90;;;;;;4408476;32;20597;-64
2021/08/24 05:43:44;;;;;;;13.33;8.20;;;14.30;99.90;;;;;;4407422;32;20152;-62
2021/08/24 05:46:15;;;;;;;13.30;7.67;;;14.40;99.90;;;;;;4406828;32;20175;-63
2021/08/24 05:48:42;;;;;;;12.17;7.93;;;14.40;99.90;;;;;;4408254;32;20433;-62
2021/08/24 05:51:10;;;;;;;17.43;8.83;;;14.50;99.90;;;;;;4409356;32;20579;-62
2021/08/24 05:53:37;;;;;;;13.20;7.57;;;14.60;99.90;;;;;;4407713;32;20152;-62
2021/08/24 05:56:10;;;;;;;10.57;7.43;;;14.70;99.90;;;;;;4406027;32;20515;-63
2021/08/24 05:58:37;;;;;;;13.47;8.40;;;14.80;99.90;;;;;;4407182;32;20602;-62
2021/08/24 06:01:06;;;;;;;12.97;7.70;;;14.90;99.90;;;;;;4408123;32;20144;-62
2021/08/24 06:03:33;;;;;;;11.97;8.00;;;15.00;99.90;;;;;;4407488;32;20603;-62
2021/08/24 06:06:01;;;;;;;16.83;8.20;;;15.00;99.90;;;;;;4407377;32;20163;-62
2021/08/24 06:08:28;;;;;;;12.83;8.47;;;15.10;99.90;;;;;;4407276;32;20147;-65
2021/08/24 06:10:55;;;;;;;14.17;8.23;;;15.10;99.90;;;;;;4405248;32;20174;-65
2021/08/24 06:13:22;;;;;;;20.83;8.57;;;15.10;99.90;;;;;;4407070;32;20582;-65
2021/08/24 06:16:01;;;;;;;11.73;7.60;;;15.20;99.90;;;;;;4398808;32;20306;-62
2021/08/24 06:18:32;;;;;;;15.23;7.63;;;15.20;99.90;;;;;;4395202;32;20223;-65
2021/08/24 06:20:58;;;;;;;11.90;7.13;;;15.30;99.90;;;;;;4392333;32;20167;-63
2021/08/24 06:23:28;;;;;;;12.40;8.10;;;15.40;99.90;;;;;;4396254;32;20230;-62
2021/08/24 06:25:58;;;;;;;14.37;7.70;;;15.40;99.90;;;;;;4386678;32;20215;-64
2021/08/24 06:28:25;;;;;;;13.37;8.33;;;15.60;99.90;;;;;;4391511;32;20170;-63
2021/08/24 06:30:55;;;;;;;9.73;6.77;;;15.60;99.90;;;;;;4391003;32;20305;-64
2021/08/24 06:33:25;;;;;;;11.57;7.50;;;15.70;99.90;;;;;;4384986;32;20190;-64
2021/08/24 06:35:55;;;;;;;14.00;7.47;;;15.80;99.90;;;;;;4391797;32;20246;-63
2021/08/24 06:38:22;;;;;;;15.33;8.10;;;15.90;99.90;;;;;;4400743;32;20140;-63
2021/08/24 06:40:49;;;;;;;13.90;7.23;;;16.10;99.90;;;;;;4404815;32;20151;-63
2021/08/24 06:43:16;;;;;;;14.83;7.47;;;16.10;99.90;;;;;;4405987;32;20174;-64
2021/08/24 06:45:43;;;;;;;10.37;6.70;;;16.20;99.90;;;;;;4405923;32;20234;-64
2021/08/24 06:48:10;;;;;;;11.77;7.13;;;16.40;99.90;;;;;;4402386;32;20227;-62
2021/08/24 06:50:38;;;;;;;9.13;6.87;;;16.60;99.90;;;;;;4405514;32;20171;-62
2021/08/24 06:53:09;;;;;;;11.80;6.73;;;16.80;99.90;;;;;;4406681;32;20155;-65
2021/08/24 06:55:38;;;;;;;10.33;5.87;;;16.90;99.90;;;;;;4405810;32;20152;-64
2021/08/24 06:58:06;;;;;;;11.37;6.90;;;17.10;99.90;;;;;;4406721;32;20156;-64
2021/08/24 07:00:34;;;;;;;10.07;6.40;;;17.20;99.90;;;;;;4405421;32;20190;-63
2021/08/24 07:03:05;;;;;;;14.07;7.10;;;17.50;99.90;;;;;;4407182;32;20499;-64
2021/08/24 07:05:34;;;;;;;10.40;6.17;;;17.70;99.90;;;;;;4398783;32;20231;-64
2021/08/24 07:08:01;;;;;;;11.37;6.93;;;17.80;99.90;;;;;;4406292;32;20156;-64
2021/08/24 07:10:29;;;;;;;9.80;6.77;;;17.90;99.90;;;;;;4406242;32;20482;-64
2021/08/24 07:12:59;;;;;;;9.17;6.03;;;17.90;99.90;;;;;;4405728;32;20174;-65
2021/08/24 07:15:26;;;;;;;9.57;6.20;;;17.90;99.90;;;;;;4405113;32;20231;-62
2021/08/24 07:17:57;;;;;;;8.30;5.73;;;17.90;99.90;;;;;;4403710;32;20148;-63
2021/08/24 07:20:24;;;;;;;7.97;5.47;;;18.20;99.90;;;;;;4404830;32;20252;-64
2021/08/24 07:22:52;;;;;;;9.67;5.93;;;18.20;99.90;;;;;;4405913;32;20155;-64
2021/08/24 07:25:22;;;;;;;8.73;5.53;;;18.20;99.90;;;;;;4405812;32;20186;-63
2021/08/24 07:27:50;;;;;;;12.30;6.37;;;18.50;99.90;;;;;;4406263;32;20148;-65
2021/08/24 07:30:18;;;;;;;11.03;6.03;;;18.60;99.90;;;;;;4405447;32;20179;-63
2021/08/24 07:32:46;;;;;;;9.63;6.10;;;18.70;99.90;;;;;;4405340;32;20163;-63
2021/08/24 07:35:14;;;;;;;12.20;5.60;;;18.80;99.90;;;;;;4405300;32;20235;-63
2021/08/24 07:37:41;;;;;;;10.13;6.20;;;19.20;99.90;;;;;;4405381;32;20152;-63
2021/08/24 07:40:10;;;;;;;8.30;5.07;;;19.70;99.90;;;;;;4405295;32;20156;-63
2021/08/24 07:42:37;;;;;;;13.97;5.63;;;19.80;99.90;;;;;;4403203;32;20613;-64
2021/08/24 07:45:06;;;;;;;13.63;5.37;;;20.00;99.90;;;;;;4405704;32;20171;-66
2021/08/24 07:47:33;;;;;;;9.23;5.37;;;20.30;99.90;;;;;;4404813;32;20147;-63
2021/08/24 07:50:00;;;;;;;8.13;4.80;;;20.40;99.90;;;;;;4405214;32;20152;-65
2021/08/24 07:52:29;;;;;;;9.63;5.37;;;20.30;99.90;;;;;;4406602;32;20140;-64
2021/08/24 07:54:58;;;;;;;9.80;5.27;;;20.30;99.90;;;;;;4404906;32;20152;-64
2021/08/24 07:57:24;;;;;;;7.77;4.77;;;20.20;99.90;;;;;;4405232;32;20219;-63
2021/08/24 07:59:51;;;;;;;8.13;4.00;;;21.40;99.90;;;;;;4405407;32;20164;-64
2021/08/24 08:02:19;;;;;;;5.87;4.07;;;22.20;99.90;;;;;;4405917;32;20147;-65
2021/08/24 08:04:47;;;;;;;8.13;4.93;;;22.30;99.90;;;;;;4405520;32;20171;-64
2021/08/24 08:07:15;;;;;;;12.43;4.63;;;22.20;99.90;;;;;;4404940;32;20156;-65
2021/08/24 08:09:42;;;;;;;7.57;4.13;;;22.80;99.90;;;;;;4405403;32;20214;-64
2021/08/24 08:12:20;;;;;;;12.73;4.00;;;22.70;99.90;;;;;;4406469;32;20524;-65
2021/08/24 08:14:47;;;;;;;6.10;3.80;;;25.40;99.90;;;;;;4403182;32;20521;-65
2021/08/24 08:17:15;;;;;;;7.07;3.67;;;28.90;95.00;;;;;;4404799;32;20668;-65
2021/08/24 08:19:43;;;;;;;11.15;4.47;;;30.20;92.40;;;;;;4403136;32;20246;-65
2021/08/24 08:22:10;;;;;;;7.45;3.40;;;31.90;84.80;;;;;;4398643;32;20178;-65
2021/08/24 08:24:37;;;;;;;4.97;3.37;;;31.10;85.50;;;;;;4403660;32;20147;-65
2021/08/24 08:27:04;;;;;;;8.82;4.00;;;28.90;85.70;;;;;;4403343;32;20206;-65
2021/08/24 08:29:31;;;;;;;6.93;4.55;;;26.50;91.80;;;;;;4404325;32;20180;-65
2021/08/24 08:32:06;;;;;;;4.80;3.17;;;25.60;94.30;;;;;;4405657;32;20163;-65
2021/08/24 08:34:33;;;;;;;5.55;2.55;;;28.10;94.50;;;;;;4405001;32;20163;-66
2021/08/24 08:37:01;;;;;;;14.15;3.75;;;30.70;90.50;;;;;;4405161;32;20459;-65
2021/08/24 08:39:28;;;;;;;4.45;3.45;;;30.40;84.90;;;;;;4404695;32;20178;-66
2021/08/24 08:42:10;;;;;;;5.70;3.58;;;27.80;88.90;;;;;;4405222;32;20199;-66
2021/08/24 08:44:47;;;;;;;6.12;3.62;;;26.10;92.80;;;;;;4405730;32;20136;-66
2021/08/24 08:47:26;;;;;;;6.80;3.30;;;25.30;94.50;;;;;;4404619;32;20144;-66
2021/08/24 08:49:58;;;;;;;6.30;3.03;;;27.80;92.80;;;;;;4404422;32;20200;-65
2021/08/24 08:52:34;;;;;;;6.12;3.30;;;28.90;91.40;;;;;;4405712;32;20232;-66
2021/08/24 08:55:24;;;;;;;9.38;4.05;;;30.20;87.30;;;;;;4405111;32;20139;-66
2021/08/24 08:57:58;;;;;;;7.93;3.03;;;31.10;83.30;;;;;;4405450;32;20170;-67
2021/08/24 09:00:44;;;;;;;5.75;2.67;;;32.30;79.20;;;;;;4405509;32;20192;-65
2021/08/24 09:03:16;;;;;;;6.03;2.83;;;31.90;78.60;;;;;;4404457;32;20156;-65
2021/08/24 09:05:43;;;;;;;7.57;3.60;;;33.50;75.90;;;;;;4404573;32;20174;-65
2021/08/24 09:08:12;;;;;;;6.68;2.92;;;35.40;68.50;;;;;;4404444;32;20329;-66
2021/08/24 09:10:41;;;;;;;4.53;3.30;;;35.60;66.80;;;;;;4403240;32;20162;-66
2021/08/24 09:13:13;;;;;;;4.35;3.40;;;33.60;68.30;;;;;;4404734;32;20520;-66
2021/08/24 09:15:44;;;;;;;5.70;3.20;;;31.30;71.80;;;;;;4404204;32;20190;-66
2021/08/24 09:18:16;;;;;;;3.53;2.83;;;28.40;78.40;;;;;;4404641;32;20170;-66
2021/08/24 09:20:56;;;;;;;6.68;3.25;;;26.90;86.40;;;;;;4406282;32;20151;-66
2021/08/24 09:23:25;;;;;;;5.05;3.55;;;26.10;90.80;;;;;;4402136;32;20163;-66
2021/08/24 09:26:01;;;;;;;6.00;3.17;;;25.30;92.80;;;;;;4405724;32;20471;-65
2021/08/24 09:28:32;;;;;;;10.00;3.80;;;24.80;94.30;;;;;;4402258;32;20498;-65
2021/08/24 09:31:01;;;;;;;4.82;2.65;;;24.50;94.80;;;;;;4405420;32;20135;-65
2021/08/24 09:33:29;;;;;;;5.57;3.43;;;24.10;96.50;;;;;;4404881;32;20166;-66
2021/08/24 09:35:57;;;;;;;4.15;3.17;;;24.10;97.70;;;;;;4405359;32;20236;-67
2021/08/24 09:38:28;;;;;;;3.95;3.08;;;24.40;98.10;;;;;;4394428;32;20144;-66
2021/08/24 09:40:57;;;;;;;10.27;3.03;;;24.40;98.20;;;;;;4406332;32;20171;-66
2021/08/24 09:43:31;;;;;;;6.23;3.03;;;24.50;98.10;;;;;;4409496;32;20174;-66
2021/08/24 09:46:01;;;;;;;4.75;2.47;;;24.50;98.00;;;;;;4408295;32;20148;-66
2021/08/24 09:48:31;;;;;;;7.30;2.83;;;23.80;98.10;;;;;;4407395;32;20170;-66
2021/08/24 09:51:19;;;;;;;7.40;3.53;;;23.10;99.50;;;;;;4407637;32;20156;-64
2021/08/24 09:53:54;;;;;;;5.23;3.07;;;22.60;99.90;;;;;;4404049;32;20188;-65
2021/08/24 09:56:24;;;;;;;5.30;3.23;;;22.30;99.90;;;;;;4406979;32;20579;-66
2021/08/24 09:58:51;;;;;;;9.77;3.03;;;22.10;99.90;;;;;;4408960;32;20159;-66
2021/08/24 10:01:18;;;;;;;12.17;3.03;;;22.30;99.90;;;;;;4407337;32;20147;-65
2021/08/24 10:03:48;;;;;;;3.13;2.67;;;22.60;99.90;;;;;;4407649;32;21179;-65
2021/08/24 10:06:25;;;;;;;5.37;2.77;;;22.70;99.90;;;;;;4408246;32;20156;-66
2021/08/24 10:08:55;;;;;;;6.40;3.27;;;22.60;99.90;;;;;;4408640;32;20445;-65
2021/08/24 10:11:28;;;;;;;7.33;2.93;;;22.50;99.90;;;;;;4407129;32;20218;-66
2021/08/24 10:14:10;;;;;;;5.97;2.70;;;22.40;99.90;;;;;;4406968;32;20160;-65
2021/08/24 10:16:40;;;;;;;6.80;2.27;;;22.30;99.90;;;;;;4406245;32;20220;-65
2021/08/24 10:19:11;;;;;;;5.43;3.33;;;22.20;99.90;;;;;;4406112;32;20176;-66
2021/08/24 10:21:43;;;;;;;5.37;2.67;;;22.40;99.90;;;;;;4406170;32;20160;-66
2021/08/24 10:24:15;;;;;;;5.37;2.57;;;22.90;99.90;;;;;;4404412;32;20212;-66
2021/08/24 10:26:43;;;;;;;6.00;2.37;;;23.30;99.90;;;;;;4407568;32;20525;-65
2021/08/24 10:29:13;;;;;;;3.60;2.13;;;23.60;99.90;;;;;;4406797;32;20241;-66
2021/08/24 10:31:42;;;;;;;3.80;2.73;;;23.70;99.90;;;;;;4405919;32;20595;-65
2021/08/24 10:34:11;;;;;;;5.07;2.67;;;23.40;99.90;;;;;;4406060;32;20230;-65
2021/08/24 10:36:41;;;;;;;3.57;2.30;;;23.00;99.90;;;;;;4405037;32;20160;-65
2021/08/24 10:39:25;;;;;;;4.93;2.67;;;22.60;99.90;;;;;;4407302;32;20531;-66
2021/08/24 10:42:03;;;;;;;4.67;2.80;;;22.30;99.90;;;;;;4406489;32;20177;-66
2021/08/24 10:44:47;;;;;;;8.77;3.33;;;22.30;99.90;;;;;;4405822;32;20743;-66
2021/08/24 10:47:22;;;;;;;4.03;3.13;;;22.40;99.90;;;;;;4403944;32;20164;-65
2021/08/24 10:49:50;;;;;;;3.50;2.17;;;22.40;99.90;;;;;;4405535;32;20178;-66
2021/08/24 10:52:29;;;;;;;4.33;3.17;;;22.50;99.90;;;;;;4404783;32;20193;-65
2021/08/24 10:55:05;;;;;;;4.00;2.80;;;22.70;99.90;;;;;;4406081;32;20207;-65
2021/08/24 10:57:47;;;;;;;6.20;2.57;;;23.00;99.90;;;;;;4405741;32;20198;-66
2021/08/24 11:00:43;;;;;;;6.20;2.40;;;23.20;99.90;;;;;;4404719;32;20510;-65
2021/08/24 11:03:29;;;;;;;6.67;2.57;;;23.30;99.90;;;;;;4405352;32;20186;-65
2021/08/24 11:06:06;;;;;;;6.03;2.15;;;23.40;99.60;;;;;;4337047;32;1722322;-65
2021/08/24 11:08:44;;;;;;;6.55;2.50;;;23.30;99.90;;;;;;4391314;32;20627;-65
2021/08/24 11:11:25;;;;;;;6.25;2.40;;;23.20;99.90;;;;;;4389995;32;20660;-65
2021/08/24 11:14:01;;;;;;;4.65;2.50;;;23.10;99.90;;;;;;4388598;32;20194;-65
2021/08/24 11:16:39;;;;;;;11.03;2.20;;;23.20;99.90;;;;;;4390267;32;20210;-65
2021/08/24 11:19:14;;;;;;;4.87;2.27;;;23.10;99.90;;;;;;4390409;32;20160;-65
2021/08/24 11:21:46;;;;;;;3.50;2.50;;;22.70;99.70;;;;;;4389866;32;20163;-65
2021/08/24 11:24:24;;;;;;;3.67;2.10;;;22.70;99.90;;;;;;4389292;32;20172;-66
2021/08/24 11:26:59;;;;;;;5.37;2.43;;;23.00;99.90;;;;;;4391595;32;20208;-65
2021/08/24 11:29:30;;;;;;;4.37;2.20;;;22.90;99.30;;;;;;4391647;32;20580;-66
2021/08/24 11:32:05;;;;;;;4.00;2.27;;;22.60;99.30;;;;;;4392467;32;20194;-65
2021/08/24 11:34:37;;;;;;;5.23;2.33;;;22.60;99.90;;;;;;4391200;32;20151;-66
2021/08/24 11:37:07;;;;;;;3.20;1.80;;;23.00;99.80;;;;;;4390590;32;20216;-64
2021/08/24 11:39:41;;;;;;;5.17;2.27;;;22.90;99.90;;;;;;4390080;32;20160;-65
2021/08/24 11:42:13;;;;;;;4.13;2.00;;;22.90;99.60;;;;;;4391229;32;20151;-65
2021/08/24 11:44:47;;;;;;;3.92;2.20;;;23.00;99.90;;;;;;4390634;32;20211;-65
2021/08/24 11:47:18;;;;;;;4.20;2.53;;;23.20;99.40;;;;;;4390452;32;20218;-64
2021/08/24 11:49:53;;;;;;;5.85;2.17;;;23.30;99.90;;;;;;4390567;32;20156;-65
2021/08/24 11:52:27;;;;;;;3.72;2.17;;;23.50;98.90;;;;;;4390715;32;20159;-64
2021/08/24 11:55:03;;;;;;;2.93;2.20;;;23.60;97.80;;;;;;4389168;32;20156;-64
2021/08/24 11:57:35;;;;;;;3.75;1.80;;;23.80;98.60;;;;;;4389327;32;20187;-66
2021/08/24 12:00:04;;;;;;;6.50;2.47;;;24.00;98.60;;;;;;4388844;32;20156;-64
2021/08/24 12:02:37;;;;;;;4.15;2.28;;;23.70;97.70;;;;;;4387944;32;20459;-65
2021/08/24 12:05:05;;;;;;;5.53;2.28;;;23.40;98.20;;;;;;4394206;32;20160;-65
2021/08/24 12:07:35;;;;;;;6.10;2.40;;;23.30;98.00;;;;;;4395946;32;20177;-65
2021/08/24 12:10:05;;;;;;;3.15;1.65;;;23.40;98.20;;;;;;4394399;32;20460;-64
2021/08/24 12:12:49;;;;;;;4.37;2.03;;;23.80;98.90;;;;;;4398526;32;20179;-65
2021/08/24 12:15:38;;;;;;;7.60;2.12;;;24.20;98.50;;;;;;4389001;32;20644;-65
2021/08/24 12:18:10;;;;;;;4.15;2.05;;;24.20;98.10;;;;;;4384111;32;20171;-64
2021/08/24 12:20:40;;;;;;;2.92;2.00;;;24.20;97.40;;;;;;4392172;32;20187;-65
2021/08/24 12:23:12;;;;;;;7.00;2.55;;;23.90;97.40;;;;;;4398710;32;20206;-64
2021/08/24 12:25:41;;;;;;;3.00;2.05;;;23.70;97.90;;;;;;4396822;32;20159;-64
2021/08/24 12:28:35;;;;;;;3.90;2.03;;;23.60;98.00;;;;;;4401072;32;20195;-64
2021/08/24 12:31:28;;;;;;;4.57;2.00;;;23.60;96.50;;;;;;4404718;32;20607;-64
2021/08/24 12:33:55;;;;;;;3.55;2.20;;;23.80;96.50;;;;;;4375982;32;20509;-64
2021/08/24 12:36:56;;;;;;;4.70;1.92;;;23.70;96.20;;;;;;4389449;32;20171;-64
2021/08/24 12:39:48;;;;;;;6.17;2.30;;;23.60;97.10;;;;;;4388777;32;20163;-65
2021/08/24 12:42:31;;;;;;;4.35;1.95;;;24.00;97.30;;;;;;4389526;32;20164;-64
2021/08/24 12:45:23;;;;;;;4.33;2.07;;;24.30;97.00;;;;;;4389019;32;20256;-64
2021/08/24 12:48:12;;;;;;;4.32;2.25;;;24.10;96.20;;;;;;4389066;32;20168;-65
2021/08/24 12:51:02;;;;;;;2.80;1.70;;;23.80;96.50;;;;;;4387539;32;20164;-64
2021/08/24 12:53:48;;;;;;;3.57;2.60;;;23.70;96.40;;;;;;4388959;32;20573;-65
2021/08/24 12:56:35;;;;;;;4.90;2.10;;;23.70;96.10;;;;;;4392233;32;20230;-63
2021/08/24 12:59:04;;;;;;;2.75;1.80;;;23.50;96.80;;;;;;4389194;32;20159;-65
2021/08/24 13:01:32;;;;;;;3.55;2.10;;;23.40;97.00;;;;;;4390555;32;20178;-65
2021/08/24 13:04:08;;;;;;;3.42;2.03;;;23.40;97.90;;;;;;4386865;32;20161;-64